Airfield :
LOGIN :

Register | Disclaimer

   EN    FR    IT 

 










Legend :    VFR   Marginal VFR   IFR   Intensive IFR   Very Intensive IFR
Visi :
Ceiling :
>= 8 km
>= 3000ft
5 to 8 km
1000 to 3000 ft
1500m to 5 km
500 to 1000 ft
800 to 1500m
200 to 500 ft
< 800m
< 200 ft
Symbols :   Thunderstorms  Fog  Heavy snow  Heavy precipitations  Wind > 20 kt
SIGMETs :     Misc.  Thunderstorms  Icing  Turbulence  Mountain Waves  Volcanic Ashes







- Airport Elevation : 26 ft


ETNT - Wittmundhaven AB

CURRENT METAR :
  • 190120Z 16003KT 3000 BR BKN015 16/15 Q1010 YLO

EXPIRED METARs :
  • 190020Z 16003KT 3000 BR BKN019 16/16 Q1010 YLO
  • 182320Z VRB01KT 4500 -RA BR BKN040 16/15 Q1010 GRN

TAF TAF ETNT
Valid from the 19 at 02:00 until the 19 at 11:00 UTC


190120Z 1902/1911 20005KT 4000 BR BKN015
TEMPO 1902/1906 22008KT 3000 -RADZ BKN006
BECMG 1906/1908 26005KT 9999 NSW FEW012 SCT040 BY ETGL
No reported NOTAMs for that airfield.



MET'MAP, your aeronautical weather chart ! - Copyright ORBIFLY December 2007 - Disclaimer

ORBIFLY MET'MAP TEAM :

Programming & Development : Alexandra Zaïnal
Concept & Development : Baudouin d'Aumeries
Co-Development & Prog : Marc-Olivier Méhu
Technical & hardware support : Manuel Goepfert

Contact : metmap@orbifly.com




SOURCES & CREDITS :

   NOAA